Time;durP1;ratioP1;P1;durP2;ratioP2;P2;SDS_P1;SDS_P2;PMS_P1;PMS_P2;Temp;Humidity;BMP_temperature;BMP_pressure;BME280_temperature;BME280_humidity;BME280_pressure;Samples;Min_cycle;Max_cycle;Signal;HPM_P1;HPM_P2
2022/02/15 00:00:21;;;;;;;5.90;1.80;;;7.10;1.00;;;;;;5095825;28;20204;-58
2022/02/15 00:02:48;;;;;;;6.10;2.23;;;7.10;1.00;;;;;;5095524;28;20208;-58
2022/02/15 00:05:14;;;;;;;5.60;2.10;;;7.10;1.00;;;;;;5095564;28;20213;-59
2022/02/15 00:07:41;;;;;;;2.80;1.47;;;7.10;1.00;;;;;;5095302;28;20728;-57
2022/02/15 00:10:09;;;;;;;4.30;1.90;;;7.10;1.00;;;;;;5094947;28;20670;-59
2022/02/15 00:12:36;;;;;;;5.67;1.70;;;7.10;1.00;;;;;;5095266;28;20261;-58
2022/02/15 00:15:03;;;;;;;7.23;2.30;;;7.10;1.00;;;;;;5095236;28;20215;-56
2022/02/15 00:17:32;;;;;;;6.03;2.20;;;7.10;1.00;;;;;;5095131;28;20239;-59
2022/02/15 00:19:58;;;;;;;6.73;2.23;;;7.10;89.10;;;;;;5095180;28;20254;-59
2022/02/15 00:22:25;;;;;;;8.57;2.17;;;7.10;91.20;;;;;;5095355;28;20212;-57
2022/02/15 00:24:52;;;;;;;3.43;2.30;;;7.10;89.50;;;;;;5095043;28;20228;-58
2022/02/15 00:27:19;;;;;;;8.20;2.20;;;7.10;99.90;;;;;;5094835;28;20635;-59
2022/02/15 00:29:45;;;;;;;7.63;2.30;;;7.10;99.90;;;;;;5095616;28;20213;-60
2022/02/15 00:32:12;;;;;;;5.57;1.83;;;7.10;99.90;;;;;;5094969;28;20205;-60
2022/02/15 00:34:40;;;;;;;6.30;2.27;;;7.10;99.90;;;;;;5094874;28;20302;-59
2022/02/15 00:37:07;;;;;;;4.90;2.20;;;7.10;99.90;;;;;;5094668;28;20228;-60
2022/02/15 00:39:33;;;;;;;5.47;2.13;;;7.10;99.90;;;;;;5094910;28;20208;-58
2022/02/15 00:42:00;;;;;;;9.30;2.53;;;7.10;99.90;;;;;;5095138;28;20261;-60
2022/02/15 00:44:27;;;;;;;9.33;2.50;;;7.00;99.90;;;;;;5094631;28;20220;-59
2022/02/15 00:46:54;;;;;;;9.20;2.50;;;7.00;99.90;;;;;;5094757;28;20238;-59
2022/02/15 00:49:21;;;;;;;7.93;2.37;;;6.90;1.00;;;;;;5094489;28;20273;-60
2022/02/15 00:51:49;;;;;;;4.07;2.10;;;6.80;1.00;;;;;;5094593;28;20200;-58
2022/02/15 00:54:16;;;;;;;4.57;2.23;;;6.70;99.90;;;;;;5094759;28;20220;-58
2022/02/15 00:56:43;;;;;;;4.57;2.33;;;6.70;1.00;;;;;;5094286;28;20224;-59
2022/02/15 00:59:10;;;;;;;5.53;2.17;;;6.60;99.90;;;;;;5094487;28;20211;-60
2022/02/15 01:01:38;;;;;;;6.23;2.30;;;6.60;99.90;;;;;;5094290;28;20736;-60
2022/02/15 01:04:05;;;;;;;6.77;2.30;;;6.70;1.00;;;;;;5094647;28;20722;-57
2022/02/15 01:06:33;;;;;;;6.93;2.00;;;6.70;99.90;;;;;;5094190;28;20234;-60
2022/02/15 01:09:01;;;;;;;9.83;2.57;;;6.70;99.90;;;;;;5094691;28;20212;-59
2022/02/15 01:11:28;;;;;;;8.23;2.63;;;6.70;99.90;;;;;;5094338;28;20200;-61
2022/02/15 01:13:54;;;;;;;8.17;2.60;;;6.70;1.00;;;;;;5093874;28;20227;-61
2022/02/15 01:16:21;;;;;;;6.97;1.97;;;6.70;1.00;;;;;;5094145;28;20216;-60
2022/02/15 01:18:47;;;;;;;4.50;2.10;;;6.80;99.90;;;;;;5094018;28;20212;-61
2022/02/15 01:21:14;;;;;;;6.20;2.77;;;6.90;76.10;;;;;;5094305;28;20304;-59
2022/02/15 01:23:42;;;;;;;9.93;2.20;;;6.90;99.90;;;;;;5093823;28;20228;-59
2022/02/15 01:26:10;;;;;;;8.17;2.40;;;6.90;97.00;;;;;;5093687;28;20283;-60
2022/02/15 01:28:37;;;;;;;7.70;2.20;;;6.90;99.90;;;;;;5094207;28;20205;-59
2022/02/15 01:31:04;;;;;;;6.73;2.40;;;6.90;99.90;;;;;;5093921;28;20217;-62
2022/02/15 01:33:31;;;;;;;8.37;2.30;;;6.90;95.40;;;;;;5093923;28;20224;-59
2022/02/15 01:35:59;;;;;;;5.27;2.03;;;6.80;99.90;;;;;;5093457;28;20228;-60
2022/02/15 01:38:26;;;;;;;7.73;2.90;;;6.80;99.90;;;;;;5094012;28;20266;-59
2022/02/15 01:40:52;;;;;;;5.90;3.10;;;6.80;1.00;;;;;;5093569;28;20277;-59
2022/02/15 01:43:21;;;;;;;6.53;2.97;;;6.70;1.00;;;;;;5093887;28;20883;-60
2022/02/15 01:45:48;;;;;;;7.40;3.00;;;6.70;1.00;;;;;;5093979;28;20200;-60
2022/02/15 01:48:15;;;;;;;7.07;2.90;;;6.60;99.90;;;;;;5093061;28;20651;-60
2022/02/15 01:50:42;;;;;;;7.33;3.23;;;6.60;1.00;;;;;;5093891;28;20211;-58
2022/02/15 01:53:08;;;;;;;8.70;2.80;;;6.60;1.00;;;;;;5093337;28;20315;-59
2022/02/15 01:55:35;;;;;;;6.93;3.07;;;6.60;8.50;;;;;;5093314;28;20281;-58
2022/02/15 01:58:02;;;;;;;8.37;3.13;;;6.60;1.00;;;;;;5093082;28;20224;-57
2022/02/15 02:00:30;;;;;;;9.27;3.57;;;6.60;1.00;;;;;;5093276;28;20256;-60
2022/02/15 02:02:56;;;;;;;4.43;2.93;;;6.60;1.00;;;;;;5093093;28;20265;-56
2022/02/15 02:08:08;;;;;;;9.83;3.93;;;6.60;1.00;;;;;;5093248;28;20722;-60
2022/02/15 02:10:35;;;;;;;7.80;2.70;;;6.60;1.00;;;;;;5092845;28;20693;-60
2022/02/15 02:13:01;;;;;;;7.23;2.70;;;6.60;99.90;;;;;;5092829;28;20228;-60
2022/02/15 02:15:29;;;;;;;5.40;2.80;;;6.70;41.20;;;;;;5092994;28;20223;-58
2022/02/15 02:17:56;;;;;;;8.03;2.73;;;6.70;14.50;;;;;;5093081;28;20706;-58
2022/02/15 02:20:23;;;;;;;7.83;3.00;;;6.60;99.90;;;;;;5093436;28;20206;-59
2022/02/15 02:22:51;;;;;;;8.90;3.60;;;6.60;1.00;;;;;;5092772;28;20204;-58
2022/02/15 02:25:19;;;;;;;6.73;3.33;;;6.60;99.90;;;;;;5092962;28;20587;-59
2022/02/15 02:27:47;;;;;;;5.90;3.57;;;6.60;99.90;;;;;;5092551;28;20268;-57
2022/02/15 02:30:14;;;;;;;7.10;2.87;;;6.60;1.00;;;;;;5092977;28;20253;-59
2022/02/15 02:32:41;;;;;;;10.07;3.20;;;6.60;1.00;;;;;;5092785;28;20629;-59
2022/02/15 02:35:09;;;;;;;6.60;3.37;;;6.70;99.90;;;;;;5092738;28;20208;-59
2022/02/15 02:37:37;;;;;;;10.17;3.80;;;6.70;1.00;;;;;;5092518;28;20217;-58
2022/02/15 02:40:07;;;;;;;6.50;4.00;;;6.70;99.90;;;;;;5092304;28;20239;-59
2022/02/15 02:42:35;;;;;;;10.50;4.33;;;6.70;99.90;;;;;;5092684;28;20236;-58
2022/02/15 02:45:04;;;;;;;8.80;3.97;;;6.70;99.90;;;;;;5092572;28;20212;-60
2022/02/15 02:47:31;;;;;;;8.13;4.00;;;6.70;99.90;;;;;;5092471;28;20200;-60
2022/02/15 02:49:58;;;;;;;8.73;4.03;;;6.70;99.90;;;;;;5092417;28;20220;-58
2022/02/15 02:52:25;;;;;;;6.67;3.80;;;6.70;99.90;;;;;;5092254;28;20212;-58
2022/02/15 02:54:52;;;;;;;10.83;5.27;;;6.70;99.90;;;;;;5092093;28;20726;-60
2022/02/15 02:57:20;;;;;;;13.93;5.30;;;6.70;99.90;;;;;;5092528;28;20285;-58
2022/02/15 02:59:47;;;;;;;9.90;4.30;;;6.70;99.90;;;;;;5092626;28;20234;-60
2022/02/15 03:02:14;;;;;;;9.33;4.23;;;6.70;99.90;;;;;;5092247;28;20257;-59
2022/02/15 03:04:41;;;;;;;9.10;4.37;;;6.80;1.00;;;;;;5092645;28;20220;-58
2022/02/15 03:07:08;;;;;;;9.37;5.17;;;6.70;1.00;;;;;;5091121;28;20203;-58
2022/02/15 03:09:34;;;;;;;12.57;5.70;;;6.70;1.00;;;;;;5091720;28;20624;-60
2022/02/15 03:12:01;;;;;;;10.83;5.03;;;6.80;1.00;;;;;;5092186;28;20697;-60
2022/02/15 03:14:29;;;;;;;10.70;4.80;;;6.80;1.00;;;;;;5091948;28;20637;-60
2022/02/15 03:16:56;;;;;;;8.03;5.50;;;6.80;99.90;;;;;;5091817;28;20222;-59
2022/02/15 03:19:23;;;;;;;9.97;6.07;;;6.70;1.00;;;;;;5091858;28;20235;-60
2022/02/15 03:21:49;;;;;;;11.20;5.77;;;6.70;92.90;;;;;;5091933;28;20578;-58
2022/02/15 03:24:16;;;;;;;12.27;5.80;;;6.70;1.00;;;;;;5092197;28;20257;-59
2022/02/15 03:26:44;;;;;;;13.53;6.37;;;6.70;1.00;;;;;;5091576;28;20670;-60
2022/02/15 03:29:11;;;;;;;12.67;6.30;;;6.80;99.90;;;;;;5092175;28;20670;-60
2022/02/15 03:31:40;;;;;;;13.87;6.73;;;6.80;99.90;;;;;;5092075;28;20295;-60
2022/02/15 03:34:06;;;;;;;13.00;6.10;;;6.70;99.90;;;;;;5091985;28;20220;-58
2022/02/15 03:36:33;;;;;;;10.33;6.20;;;6.70;1.00;;;;;;5091559;28;20558;-60
2022/02/15 03:39:00;;;;;;;14.33;6.60;;;6.70;1.00;;;;;;5092244;28;20269;-60
2022/02/15 03:44:11;;;;;;;13.70;6.40;;;6.70;14.80;;;;;;5091946;28;20273;-60
2022/02/15 03:46:39;;;;;;;11.63;6.63;;;6.70;99.90;;;;;;5091743;28;20204;-59
2022/02/15 03:49:11;;;;;;;14.23;7.17;;;6.60;99.90;;;;;;5091701;28;20216;-57
2022/02/15 03:51:38;;;;;;;13.77;7.20;;;6.60;99.90;;;;;;5091909;28;20250;-55
2022/02/15 03:54:05;;;;;;;11.73;7.43;;;6.60;99.90;;;;;;5091729;28;20700;-59
2022/02/15 03:56:33;;;;;;;10.17;6.60;;;6.60;1.00;;;;;;5091513;28;20295;-57
2022/02/15 03:59:00;;;;;;;12.37;8.03;;;6.50;99.90;;;;;;5091659;28;20205;-58
2022/02/15 04:01:27;;;;;;;13.30;7.53;;;6.50;1.00;;;;;;5091381;28;20242;-58
2022/02/15 04:03:55;;;;;;;16.70;8.27;;;6.50;99.90;;;;;;5091710;28;20228;-57
2022/02/15 04:06:22;;;;;;;15.47;8.20;;;6.50;1.00;;;;;;5091384;28;20791;-59
2022/02/15 04:08:49;;;;;;;15.43;7.80;;;6.50;99.90;;;;;;5091690;28;20617;-59
2022/02/15 04:11:16;;;;;;;11.83;7.20;;;6.50;1.00;;;;;;5091553;28;20590;-58
2022/02/15 04:13:42;;;;;;;14.63;8.23;;;6.50;1.00;;;;;;5091324;28;20698;-60
2022/02/15 04:16:10;;;;;;;13.77;8.17;;;6.50;64.80;;;;;;5091264;28;20241;-59
2022/02/15 04:18:43;;;;;;;16.27;9.03;;;6.50;1.00;;;;;;5093685;28;20698;-56
2022/02/15 04:21:12;;;;;;;12.67;7.83;;;6.50;1.00;;;;;;5095291;28;20208;-58
2022/02/15 04:23:39;;;;;;;14.97;9.00;;;6.40;99.90;;;;;;5095089;28;20228;-58
2022/02/15 04:26:05;;;;;;;18.50;9.10;;;6.30;1.00;;;;;;5094989;28;20208;-58
2022/02/15 04:28:32;;;;;;;14.80;8.17;;;6.20;99.90;;;;;;5094953;28;20253;-60
2022/02/15 04:30:59;;;;;;;15.97;9.00;;;6.20;99.90;;;;;;5095330;28;20555;-57
2022/02/15 04:33:26;;;;;;;20.63;8.90;;;6.20;1.00;;;;;;5095204;28;20228;-58
2022/02/15 04:35:52;;;;;;;16.07;9.23;;;6.20;12.20;;;;;;5095021;28;20208;-60
2022/02/15 04:38:20;;;;;;;18.33;9.10;;;6.20;11.50;;;;;;5095244;28;20224;-59
2022/02/15 04:40:47;;;;;;;19.87;9.83;;;6.20;52.90;;;;;;5094779;28;20208;-59
2022/02/15 04:43:13;;;;;;;16.60;8.97;;;6.20;99.90;;;;;;5095084;28;20236;-59
2022/02/15 04:45:40;;;;;;;19.70;9.80;;;6.20;99.90;;;;;;5094995;28;20207;-60
2022/02/15 04:48:07;;;;;;;16.00;9.07;;;6.20;99.90;;;;;;5094703;28;20262;-60
2022/02/15 04:50:33;;;;;;;19.13;8.80;;;6.20;99.90;;;;;;5095060;28;20207;-59
2022/02/15 04:53:00;;;;;;;17.13;9.17;;;6.20;99.90;;;;;;5094787;28;20228;-59
2022/02/15 04:55:28;;;;;;;19.10;8.93;;;6.30;99.90;;;;;;5094613;28;20211;-59
2022/02/15 04:57:55;;;;;;;17.90;9.47;;;6.20;99.90;;;;;;5094454;28;20238;-59
2022/02/15 05:00:21;;;;;;;21.07;9.43;;;6.30;99.90;;;;;;5094735;28;20208;-60
2022/02/15 05:02:48;;;;;;;16.23;8.90;;;6.20;99.90;;;;;;5094569;28;20215;-59
2022/02/15 05:05:15;;;;;;;14.47;8.50;;;6.30;99.90;;;;;;5094296;28;20224;-60
2022/02/15 05:07:41;;;;;;;17.83;9.13;;;6.20;99.90;;;;;;5094474;28;20625;-59
2022/02/15 05:10:09;;;;;;;17.13;9.00;;;6.20;99.90;;;;;;5096409;28;20711;-57
2022/02/15 05:12:37;;;;;;;15.47;8.43;;;6.20;99.90;;;;;;5094421;28;20213;-59
2022/02/15 05:15:09;;;;;;;17.50;9.40;;;6.20;99.90;;;;;;5094271;28;20223;-58
2022/02/15 05:17:36;;;;;;;19.47;9.53;;;6.20;99.90;;;;;;5093993;28;20236;-59
2022/02/15 05:20:05;;;;;;;14.43;7.93;;;6.10;99.90;;;;;;5094063;28;20204;-59
2022/02/15 05:22:31;;;;;;;16.17;7.97;;;6.10;99.90;;;;;;5093962;28;20204;-60
2022/02/15 05:24:58;;;;;;;16.07;7.93;;;6.10;99.90;;;;;;5093797;28;20835;-58
2022/02/15 05:27:25;;;;;;;16.03;8.50;;;6.10;1.00;;;;;;5093490;28;20204;-58
2022/02/15 05:29:53;;;;;;;15.70;8.43;;;6.10;1.00;;;;;;5093001;28;20559;-64
2022/02/15 05:32:20;;;;;;;18.70;8.53;;;6.10;1.00;;;;;;5093933;28;20212;-61
2022/02/15 05:34:47;;;;;;;16.43;8.43;;;6.10;1.00;;;;;;5093625;28;20220;-60
2022/02/15 05:37:14;;;;;;;13.50;7.50;;;6.00;1.00;;;;;;5093518;28;20250;-61
2022/02/15 05:39:40;;;;;;;12.27;8.07;;;6.10;1.00;;;;;;5093668;28;20208;-61
2022/02/15 05:42:07;;;;;;;13.47;8.40;;;6.00;1.00;;;;;;5093850;28;20215;-61
2022/02/15 05:44:34;;;;;;;14.73;8.80;;;6.00;1.00;;;;;;5093486;28;20270;-61
2022/02/15 05:47:02;;;;;;;15.10;8.50;;;6.00;1.00;;;;;;5093660;28;20258;-62
2022/02/15 05:49:29;;;;;;;13.20;8.10;;;6.00;1.00;;;;;;5093552;28;20235;-62
2022/02/15 05:51:55;;;;;;;17.83;9.33;;;6.10;1.00;;;;;;5091936;28;20211;-60
2022/02/15 05:54:22;;;;;;;15.30;8.80;;;6.00;1.00;;;;;;5093586;28;20228;-62
2022/02/15 05:56:49;;;;;;;15.57;8.53;;;6.00;1.00;;;;;;5093494;28;20212;-61
2022/02/15 05:59:15;;;;;;;19.97;9.17;;;5.90;1.00;;;;;;5094032;28;20228;-61
2022/02/15 06:01:43;;;;;;;17.53;8.47;;;5.90;1.00;;;;;;5093578;28;20620;-63
2022/02/15 06:04:11;;;;;;;15.10;9.30;;;5.80;1.00;;;;;;5092972;28;20280;-62
2022/02/15 06:06:38;;;;;;;18.80;9.23;;;5.80;11.70;;;;;;5093380;28;20203;-62
2022/02/15 06:09:05;;;;;;;17.20;9.67;;;5.80;32.90;;;;;;5093080;28;20290;-61
2022/02/15 06:11:32;;;;;;;20.40;9.53;;;5.80;28.20;;;;;;5093165;28;20211;-61
2022/02/15 06:13:58;;;;;;;19.20;10.10;;;5.80;28.70;;;;;;5092920;28;20246;-63
2022/02/15 06:16:25;;;;;;;17.57;9.17;;;5.80;36.40;;;;;;5093212;28;20212;-62
2022/02/15 06:18:55;;;;;;;17.77;8.97;;;5.70;40.20;;;;;;5092660;28;20230;-62
2022/02/15 06:21:25;;;;;;;17.10;9.20;;;5.80;43.20;;;;;;5092882;28;20644;-62
2022/02/15 06:23:52;;;;;;;17.57;9.10;;;5.80;47.70;;;;;;5092976;28;20231;-62
2022/02/15 06:26:18;;;;;;;20.13;9.93;;;5.80;52.20;;;;;;5092410;28;20202;-61
2022/02/15 06:28:45;;;;;;;19.03;9.00;;;5.80;53.30;;;;;;5092654;28;20611;-61
2022/02/15 06:31:12;;;;;;;16.30;9.20;;;5.80;51.10;;;;;;5092903;28;20689;-62
2022/02/15 06:33:39;;;;;;;16.97;10.00;;;5.80;49.80;;;;;;5092644;28;20230;-62
2022/02/15 06:36:06;;;;;;;17.00;8.20;;;5.80;52.10;;;;;;5092867;28;20269;-61
2022/02/15 06:38:34;;;;;;;19.47;8.87;;;5.80;52.30;;;;;;5092357;28;20277;-60
2022/02/15 06:41:01;;;;;;;14.37;8.73;;;5.90;52.40;;;;;;5092566;28;20214;-60
2022/02/15 06:43:28;;;;;;;16.73;9.20;;;5.90;41.30;;;;;;5092235;28;20263;-64
2022/02/15 06:45:55;;;;;;;16.93;9.73;;;5.80;52.20;;;;;;5092217;28;20736;-63
2022/02/15 06:48:21;;;;;;;19.77;9.13;;;5.80;62.20;;;;;;5092543;28;20208;-63
2022/02/15 06:50:48;;;;;;;17.10;8.83;;;5.80;56.70;;;;;;5092008;28;20203;-61
2022/02/15 06:53:16;;;;;;;21.53;9.13;;;5.80;65.10;;;;;;5092422;28;20231;-61
2022/02/15 06:55:44;;;;;;;13.17;7.90;;;5.90;62.60;;;;;;5092003;28;20210;-63
2022/02/15 06:58:11;;;;;;;14.03;7.83;;;5.80;55.00;;;;;;5092021;28;20234;-63
2022/02/15 07:00:38;;;;;;;14.87;8.63;;;5.80;57.60;;;;;;5092015;28;20207;-63
2022/02/15 07:03:04;;;;;;;14.33;8.23;;;5.80;55.50;;;;;;5092005;28;20702;-64
2022/02/15 07:05:31;;;;;;;13.57;7.80;;;5.80;57.00;;;;;;5092386;28;20207;-64
2022/02/15 07:07:58;;;;;;;15.33;8.00;;;5.90;52.00;;;;;;5091920;28;20204;-63
2022/02/15 07:10:25;;;;;;;15.77;8.57;;;5.90;38.10;;;;;;5092248;28;20584;-64
2022/02/15 07:12:53;;;;;;;13.23;8.07;;;6.00;26.30;;;;;;5092356;28;20771;-63
2022/02/15 07:15:20;;;;;;;12.63;6.80;;;5.90;13.40;;;;;;5092048;28;20257;-62
2022/02/15 07:17:46;;;;;;;12.97;7.70;;;6.00;1.00;;;;;;5091822;28;20220;-62
2022/02/15 07:20:14;;;;;;;12.60;6.53;;;5.90;1.00;;;;;;5091768;28;20697;-63
2022/02/15 07:22:40;;;;;;;10.70;5.97;;;5.90;1.00;;;;;;5092095;28;20329;-62
2022/02/15 07:25:08;;;;;;;11.10;6.73;;;5.90;1.00;;;;;;5092067;28;20252;-62
2022/02/15 07:27:35;;;;;;;12.23;6.67;;;5.80;1.00;;;;;;5091734;28;20296;-61
2022/02/15 07:30:04;;;;;;;11.73;6.73;;;5.80;1.00;;;;;;5079715;28;20207;-62
2022/02/15 07:32:31;;;;;;;10.83;6.57;;;5.80;1.00;;;;;;5091224;28;20265;-62
2022/02/15 07:34:58;;;;;;;16.57;8.80;;;5.90;1.00;;;;;;5091998;28;20234;-60
2022/02/15 07:37:26;;;;;;;13.73;8.23;;;6.00;1.00;;;;;;5091087;28;20213;-59
2022/02/15 07:39:53;;;;;;;10.43;7.10;;;5.90;1.00;;;;;;5091009;28;20709;-62
2022/02/15 07:42:20;;;;;;;12.53;7.50;;;6.00;1.00;;;;;;5091007;28;20210;-61
2022/02/15 07:44:47;;;;;;;14.47;8.27;;;6.00;1.00;;;;;;5091347;28;20318;-62
2022/02/15 07:47:15;;;;;;;11.77;8.07;;;6.10;1.00;;;;;;5091438;28;20203;-61
2022/02/15 07:49:43;;;;;;;12.60;8.50;;;6.00;1.00;;;;;;5090684;28;20218;-62
2022/02/15 07:52:09;;;;;;;15.73;8.93;;;6.00;1.00;;;;;;5091715;28;20208;-62
2022/02/15 07:54:37;;;;;;;15.80;9.70;;;6.10;1.00;;;;;;5095187;28;20582;-61
2022/02/15 07:57:05;;;;;;;16.17;9.20;;;6.10;1.00;;;;;;5095436;28;20234;-61
2022/02/15 07:59:32;;;;;;;19.23;9.13;;;6.10;1.00;;;;;;5095617;28;20319;-61
2022/02/15 08:01:58;;;;;;;16.87;9.77;;;6.20;1.00;;;;;;5095060;28;20204;-62
2022/02/15 08:04:26;;;;;;;25.43;10.90;;;6.30;1.00;;;;;;5095598;28;20231;-62
2022/02/15 08:06:53;;;;;;;21.10;10.57;;;6.20;1.00;;;;;;5095338;28;20211;-62
2022/02/15 08:09:21;;;;;;;16.37;10.10;;;6.30;1.00;;;;;;5095308;28;20200;-62
2022/02/15 08:11:54;;;;;;;16.77;10.33;;;6.30;1.00;;;;;;5095323;28;20288;-62
2022/02/15 08:14:21;;;;;;;15.70;9.93;;;6.30;1.00;;;;;;5094563;28;20235;-63
2022/02/15 08:16:48;;;;;;;20.07;10.67;;;6.30;1.00;;;;;;5095120;28;20232;-62
2022/02/15 08:19:15;;;;;;;14.23;9.70;;;6.30;1.00;;;;;;5095401;28;20231;-63
2022/02/15 08:21:43;;;;;;;17.40;9.90;;;6.30;1.00;;;;;;5094701;28;20208;-62
2022/02/15 08:24:10;;;;;;;18.93;9.87;;;6.30;1.00;;;;;;5095289;28;20230;-63
2022/02/15 08:26:36;;;;;;;20.47;10.47;;;6.30;1.00;;;;;;5094434;28;20227;-63
2022/02/15 08:29:03;;;;;;;18.90;11.17;;;6.30;1.00;;;;;;5094435;28;20670;-63
2022/02/15 08:31:30;;;;;;;18.23;10.63;;;6.20;1.00;;;;;;5094283;28;20216;-60
2022/02/15 08:33:57;;;;;;;21.23;11.20;;;6.20;1.00;;;;;;5094369;28;20235;-62
2022/02/15 08:36:23;;;;;;;20.00;10.70;;;6.20;1.00;;;;;;5094260;28;20219;-63
2022/02/15 08:38:51;;;;;;;21.27;11.03;;;6.30;1.00;;;;;;5094110;28;20724;-63
2022/02/15 08:41:18;;;;;;;21.03;12.20;;;6.30;1.00;;;;;;5094419;28;20212;-63
2022/02/15 08:43:45;;;;;;;22.53;12.33;;;6.40;1.00;;;;;;5094360;28;20228;-64
2022/02/15 08:46:12;;;;;;;19.33;12.03;;;6.40;1.00;;;;;;5094514;28;20196;-60
2022/02/15 08:48:39;;;;;;;23.40;12.20;;;6.40;1.00;;;;;;5094303;28;20208;-61
2022/02/15 08:51:06;;;;;;;18.73;11.43;;;6.40;1.00;;;;;;5093691;28;20242;-61
2022/02/15 08:53:33;;;;;;;20.97;11.97;;;6.50;1.00;;;;;;5094691;28;20314;-62
2022/02/15 08:56:01;;;;;;;20.83;11.03;;;6.50;99.90;;;;;;5094235;28;20211;-60
2022/02/15 08:58:28;;;;;;;15.50;10.00;;;6.60;99.90;;;;;;5093964;28;20224;-61
2022/02/15 09:00:59;;;;;;;16.30;9.67;;;6.60;99.90;;;;;;5093697;28;20255;-64
2022/02/15 09:03:26;;;;;;;17.73;10.77;;;6.60;99.90;;;;;;5092877;28;20246;-64
2022/02/15 09:05:54;;;;;;;17.50;10.03;;;6.70;1.00;;;;;;5093534;28;20212;-63
2022/02/15 09:08:21;;;;;;;18.40;10.67;;;6.70;1.00;;;;;;5093914;28;20273;-63
2022/02/15 09:10:48;;;;;;;20.13;10.03;;;6.80;1.00;;;;;;5093255;28;20204;-63
2022/02/15 09:13:16;;;;;;;17.70;10.50;;;6.90;99.90;;;;;;5094063;28;20228;-62
2022/02/15 09:15:43;;;;;;;20.23;10.17;;;7.00;99.90;;;;;;5093550;28;20269;-62
2022/02/15 09:18:09;;;;;;;22.33;11.40;;;7.00;99.90;;;;;;5093093;28;20219;-58
2022/02/15 09:20:38;;;;;;;20.07;10.50;;;7.00;1.00;;;;;;5093382;28;20208;-60
2022/02/15 09:23:04;;;;;;;15.90;9.77;;;7.10;1.00;;;;;;5093527;28;20226;-60
2022/02/15 09:25:31;;;;;;;15.93;9.77;;;7.20;99.90;;;;;;5093836;28;20212;-61
2022/02/15 09:27:58;;;;;;;16.03;9.83;;;7.30;99.90;;;;;;5093100;28;20212;-61
2022/02/15 09:30:27;;;;;;;17.67;10.70;;;7.30;99.90;;;;;;5093246;28;20206;-61
2022/02/15 09:32:54;;;;;;;19.57;10.13;;;7.20;99.90;;;;;;5093018;28;20413;-61
2022/02/15 09:35:21;;;;;;;12.37;8.97;;;7.20;1.00;;;;;;5093591;28;20245;-59
2022/02/15 09:37:48;;;;;;;13.73;8.23;;;7.20;99.90;;;;;;5093067;28;20212;-63
2022/02/15 09:40:15;;;;;;;14.10;8.60;;;7.30;99.90;;;;;;5093030;28;20236;-62
2022/02/15 09:42:42;;;;;;;11.77;8.17;;;7.20;99.90;;;;;;5093334;28;20250;-62
2022/02/15 09:45:11;;;;;;;13.93;8.30;;;7.30;99.90;;;;;;5093241;28;20208;-60
2022/02/15 09:47:41;;;;;;;14.20;8.93;;;7.30;99.90;;;;;;5093318;28;20212;-59
2022/02/15 09:50:09;;;;;;;15.90;9.50;;;7.30;93.90;;;;;;5093199;28;20630;-62
2022/02/15 09:52:37;;;;;;;15.40;8.77;;;7.20;41.20;;;;;;5093200;28;20623;-61
2022/02/15 09:55:04;;;;;;;16.47;8.93;;;7.10;99.90;;;;;;5092998;28;20254;-63
2022/02/15 09:57:31;;;;;;;20.00;9.30;;;7.10;81.60;;;;;;5092847;28;20674;-62
2022/02/15 09:59:58;;;;;;;14.67;9.47;;;7.10;1.00;;;;;;5092468;28;20227;-61
2022/02/15 10:02:27;;;;;;;15.33;8.80;;;7.10;99.90;;;;;;5093206;28;20250;-62
2022/02/15 10:04:56;;;;;;;12.67;9.20;;;7.00;99.90;;;;;;5092662;28;20224;-62
2022/02/15 10:07:24;;;;;;;17.10;10.27;;;7.00;1.00;;;;;;5092584;28;20208;-62
2022/02/15 10:09:51;;;;;;;17.87;9.27;;;6.90;99.90;;;;;;5092296;28;20586;-61
2022/02/15 10:12:19;;;;;;;11.83;8.07;;;6.90;99.90;;;;;;5093031;28;20211;-61
2022/02/15 10:14:47;;;;;;;13.37;8.77;;;6.90;79.00;;;;;;5093764;28;20228;-63
2022/02/15 10:17:17;;;;;;;15.10;9.07;;;6.90;99.90;;;;;;5092677;28;20261;-62
2022/02/15 10:19:47;;;;;;;13.27;8.50;;;7.00;1.00;;;;;;5092126;28;20944;-63
2022/02/15 10:22:17;;;;;;;17.27;9.83;;;7.10;99.90;;;;;;5092413;28;20234;-61
2022/02/15 10:24:50;;;;;;;14.93;8.70;;;7.10;99.90;;;;;;5092109;28;20228;-59
2022/02/15 10:27:17;;;;;;;11.00;7.87;;;7.10;16.30;;;;;;5092612;28;20240;-61
2022/02/15 10:29:46;;;;;;;10.87;8.23;;;7.20;1.00;;;;;;5091845;28;20670;-61
2022/02/15 10:32:14;;;;;;;16.00;8.47;;;7.30;99.90;;;;;;5092395;28;20212;-61
2022/02/15 10:34:49;;;;;;;13.43;8.37;;;7.30;1.00;;;;;;5091990;28;20277;-61
2022/02/15 10:37:18;;;;;;;11.43;7.53;;;7.30;78.50;;;;;;5091920;28;20203;-63
2022/02/15 10:39:47;;;;;;;10.70;7.73;;;7.30;1.00;;;;;;5092273;28;20227;-61
2022/02/15 10:42:15;;;;;;;11.13;7.47;;;7.20;57.40;;;;;;5092012;28;20235;-63
2022/02/15 10:44:54;;;;;;;11.10;6.90;;;7.20;99.90;;;;;;5092398;28;20649;-63
2022/02/15 10:47:21;;;;;;;13.97;8.10;;;7.20;99.90;;;;;;5091846;28;20729;-62
2022/02/15 10:49:48;;;;;;;15.93;8.53;;;7.10;1.00;;;;;;5091377;28;20240;-64
2022/02/15 10:52:16;;;;;;;13.77;8.77;;;6.90;1.00;;;;;;5092303;28;20239;-64
2022/02/15 10:54:44;;;;;;;15.20;8.33;;;7.00;99.00;;;;;;5092082;28;20243;-63
2022/02/15 10:57:14;;;;;;;13.83;8.57;;;6.90;1.00;;;;;;5092058;28;20300;-63
2022/02/15 10:59:43;;;;;;;13.30;8.00;;;6.90;1.00;;;;;;5091366;28;20231;-62
2022/02/15 11:02:17;;;;;;;15.87;9.57;;;6.90;99.90;;;;;;5091591;28;20602;-62
2022/02/15 11:04:45;;;;;;;17.00;8.90;;;6.90;99.90;;;;;;5091889;28;20232;-62
2022/02/15 11:07:14;;;;;;;18.63;9.40;;;6.90;65.20;;;;;;5091733;28;20250;-59
2022/02/15 11:10:07;;;;;;;19.70;8.50;;;6.80;99.90;;;;;;5091656;28;20293;-63
2022/02/15 11:12:43;;;;;;;14.20;7.70;;;6.90;99.90;;;;;;5091477;28;20250;-65
2022/02/15 11:15:11;;;;;;;11.83;8.10;;;7.10;1.00;;;;;;5091763;28;20249;-65
2022/02/15 11:17:47;;;;;;;13.53;8.40;;;7.20;99.90;;;;;;5091286;28;20215;-65
2022/02/15 11:20:17;;;;;;;12.87;7.97;;;7.40;99.90;;;;;;5091525;28;20223;-65
2022/02/15 11:22:45;;;;;;;12.13;7.10;;;7.60;1.00;;;;;;5091647;28;20212;-65
2022/02/15 11:25:13;;;;;;;11.83;6.90;;;7.80;99.90;;;;;;5091271;28;20208;-65
2022/02/15 11:27:49;;;;;;;11.97;7.10;;;7.80;1.00;;;;;;5090771;28;20208;-65
2022/02/15 11:30:16;;;;;;;10.43;6.23;;;8.00;1.00;;;;;;5091281;28;20671;-67
2022/02/15 11:32:44;;;;;;;14.87;7.20;;;8.00;99.90;;;;;;5091476;28;20199;-66
2022/02/15 11:35:14;;;;;;;12.47;7.30;;;8.00;99.90;;;;;;5091591;28;20219;-67
2022/02/15 11:37:40;;;;;;;11.13;6.93;;;8.10;99.90;;;;;;5091090;28;20205;-66
2022/02/15 11:40:10;;;;;;;10.27;6.00;;;7.90;52.30;;;;;;5091259;28;20709;-66
2022/02/15 11:42:46;;;;;;;11.37;6.10;;;7.80;1.00;;;;;;5091709;28;20265;-66
2022/02/15 11:45:18;;;;;;;11.93;6.03;;;8.00;8.80;;;;;;5091576;28;20207;-66
2022/02/15 11:47:45;;;;;;;10.50;6.30;;;8.30;1.00;;;;;;5091163;28;20307;-69
2022/02/15 11:50:14;;;;;;;11.33;5.50;;;8.60;99.90;;;;;;5090838;28;20262;-67
2022/02/15 11:52:41;;;;;;;9.90;4.70;;;8.60;99.90;;;;;;5091514;28;20205;-67
2022/02/15 11:55:11;;;;;;;11.50;4.20;;;8.50;62.50;;;;;;5090907;28;20232;-68
2022/02/15 11:57:38;;;;;;;7.80;3.80;;;8.30;1.00;;;;;;5091642;28;20214;-67
2022/02/15 12:00:09;;;;;;;7.93;4.20;;;8.20;4.10;;;;;;5091185;28;20216;-67
2022/02/15 12:02:35;;;;;;;6.87;4.07;;;8.30;70.10;;;;;;5090920;28;20216;-68
2022/02/15 12:05:04;;;;;;;7.50;3.40;;;8.40;83.30;;;;;;5091320;28;20208;-61
2022/02/15 12:07:31;;;;;;;7.87;2.80;;;8.50;1.00;;;;;;5091348;28;20209;-61
2022/02/15 12:09:59;;;;;;;7.20;3.33;;;8.30;1.00;;;;;;5091329;28;20281;-61
2022/02/15 12:12:33;;;;;;;4.07;2.80;;;8.30;1.00;;;;;;5091496;28;20295;-61
2022/02/15 12:15:01;;;;;;;8.23;3.50;;;8.00;1.00;;;;;;5091033;28;20204;-61
2022/02/15 12:17:30;;;;;;;5.70;2.80;;;7.80;1.00;;;;;;5090988;28;20697;-61
2022/02/15 12:19:57;;;;;;;4.97;2.80;;;7.80;1.00;;;;;;5090665;28;20235;-61
2022/02/15 12:22:25;;;;;;;4.23;2.27;;;7.80;1.00;;;;;;5091404;28;20208;-59
2022/02/15 12:24:53;;;;;;;8.90;2.80;;;7.80;1.00;;;;;;5090863;28;20892;-60
2022/02/15 12:27:20;;;;;;;8.67;2.50;;;8.00;1.00;;;;;;5090857;28;20582;-63
2022/02/15 12:29:51;;;;;;;5.60;2.33;;;8.00;1.00;;;;;;5090706;28;20215;-64
2022/02/15 12:32:23;;;;;;;5.20;3.00;;;8.10;1.00;;;;;;5091028;28;20223;-61
2022/02/15 12:34:52;;;;;;;7.13;2.70;;;8.10;1.00;;;;;;5090820;28;20310;-61
2022/02/15 12:37:20;;;;;;;5.50;2.83;;;8.20;1.00;;;;;;5090765;28;20277;-63
2022/02/15 12:39:47;;;;;;;7.50;2.73;;;8.20;1.00;;;;;;5093301;28;20216;-62
2022/02/15 12:42:16;;;;;;;5.03;2.80;;;7.80;1.00;;;;;;5094436;28;20208;-62
2022/02/15 12:44:54;;;;;;;4.33;2.77;;;7.70;1.00;;;;;;5094227;28;20229;-62
2022/02/15 12:47:21;;;;;;;5.50;2.50;;;7.60;1.00;;;;;;5094452;28;20735;-62
2022/02/15 12:49:48;;;;;;;4.80;2.23;;;7.70;1.00;;;;;;5093609;28;20218;-62
2022/02/15 12:52:16;;;;;;;5.23;2.27;;;7.90;1.00;;;;;;5094550;28;20204;-62
2022/02/15 12:54:50;;;;;;;4.83;2.13;;;8.20;1.00;;;;;;5094018;28;20228;-62
2022/02/15 12:57:18;;;;;;;2.43;1.93;;;8.40;1.00;;;;;;5094437;28;20207;-61
2022/02/15 12:59:45;;;;;;;4.20;2.33;;;8.50;1.00;;;;;;5093856;28;20698;-60